Somerset, Texas
Current Conditions -  °F | °C
As of 6:58 AM on Wednesday 26 Nov 2014 (Local Time) from KSKF Reporting Station
Clear Clear  
Wind Chill: 41°   Ceiling: Unl
Heat Index: 41°   Visibility: 10mi
Dew Point: 31°   Wind: 0mph
Humidity: 69%   Direction: NA
Pressure: 30.21"   Gusts: NA
Location:  29.23°N, 98.66°W
Report Text: KSKF 261258Z AUTO 00000KT 10SM CLR 05/00 A3021 RMK AO2 SLP231 T00491003 $
Loading
Personal Weather Stations






























Interactive Weather Map New forecast layout! Learn more

10-Day Weather Forecast

Advertisements
Track Severe Weather on mobile